Time;durP1;ratioP1;P1;durP2;ratioP2;P2;SDS_P1;SDS_P2;PMS_P1;PMS_P2;Temp;Humidity;BMP_temperature;BMP_pressure;BME280_temperature;BME280_humidity;BME280_pressure;Samples;Min_cycle;Max_cycle;Signal;HPM_P1;HPM_P2
2021/07/24 00:01:29;;;;;;;9.17;8.17;;;20.80;99.90;;;;;;4994994;28;20640;-62
2021/07/24 00:03:55;;;;;;;9.67;8.67;;;20.80;99.90;;;;;;4995032;28;20293;-62
2021/07/24 00:06:20;;;;;;;9.53;8.60;;;20.80;99.90;;;;;;4994399;28;20260;-61
2021/07/24 00:08:46;;;;;;;9.93;8.40;;;20.80;99.90;;;;;;4990327;28;20213;-62
2021/07/24 00:11:12;;;;;;;9.23;8.23;;;20.80;99.90;;;;;;4984753;28;20203;-61
2021/07/24 00:13:39;;;;;;;9.93;8.70;;;20.70;99.90;;;;;;4990762;28;20606;-60
2021/07/24 00:16:05;;;;;;;11.13;8.80;;;20.70;99.90;;;;;;5014804;28;20174;-62
2021/07/24 00:18:34;;;;;;;11.80;9.50;;;20.60;99.90;;;;;;4995273;28;20264;-62
2021/07/24 00:21:00;;;;;;;8.90;8.00;;;20.60;99.90;;;;;;4990631;28;20617;-62
2021/07/24 00:23:26;;;;;;;9.80;8.47;;;20.60;99.90;;;;;;4993890;28;20661;-60
2021/07/24 00:25:51;;;;;;;9.40;8.50;;;20.60;99.90;;;;;;4994365;28;20177;-62
2021/07/24 00:28:17;;;;;;;10.20;9.17;;;20.50;99.90;;;;;;4994549;28;20582;-61
2021/07/24 00:30:43;;;;;;;9.20;8.30;;;20.50;99.90;;;;;;4994525;28;20169;-62
2021/07/24 00:33:09;;;;;;;12.10;8.80;;;20.40;99.90;;;;;;4994088;28;20189;-61
2021/07/24 00:35:35;;;;;;;9.00;8.10;;;20.40;99.90;;;;;;4995349;28;20271;-62
2021/07/24 00:38:01;;;;;;;9.03;8.13;;;20.40;99.90;;;;;;4994464;28;20261;-62
2021/07/24 00:40:29;;;;;;;9.97;8.87;;;20.30;99.90;;;;;;4993999;28;20216;-62
2021/07/24 00:42:57;;;;;;;9.60;8.70;;;20.30;99.90;;;;;;4992435;28;20259;-62
2021/07/24 00:45:23;;;;;;;9.83;8.83;;;20.20;99.90;;;;;;4992986;28;20185;-61
2021/07/24 00:47:54;;;;;;;9.40;8.50;;;20.20;99.90;;;;;;4992913;28;20208;-62
2021/07/24 00:50:20;;;;;;;9.07;8.17;;;20.10;99.90;;;;;;5001215;28;20550;-62
2021/07/24 00:52:45;;;;;;;8.87;8.00;;;20.10;99.90;;;;;;5002534;28;20652;-62
2021/07/24 00:55:15;;;;;;;10.30;9.17;;;20.10;99.90;;;;;;5001674;28;20180;-62
2021/07/24 00:57:41;;;;;;;10.13;8.87;;;20.00;99.90;;;;;;5003785;28;20170;-60
2021/07/24 01:00:08;;;;;;;11.07;8.97;;;19.80;99.90;;;;;;5001344;28;20197;-61
2021/07/24 01:02:34;;;;;;;10.47;8.97;;;19.90;99.90;;;;;;5002065;28;20201;-60
2021/07/24 01:05:02;;;;;;;9.87;8.87;;;19.90;99.90;;;;;;5003717;28;20284;-61
2021/07/24 01:07:29;;;;;;;10.07;9.07;;;19.90;99.90;;;;;;5002285;28;20180;-62
2021/07/24 01:09:57;;;;;;;9.73;8.73;;;19.80;99.90;;;;;;5002666;28;20722;-62
2021/07/24 01:12:23;;;;;;;10.13;9.13;;;19.80;99.90;;;;;;5001835;28;20180;-62
2021/07/24 01:14:50;;;;;;;11.57;8.67;;;19.70;99.90;;;;;;5002507;28;20174;-59
2021/07/24 01:17:15;;;;;;;10.03;8.60;;;19.70;99.90;;;;;;5000753;28;20174;-61
2021/07/24 01:19:42;;;;;;;10.40;8.77;;;19.60;99.90;;;;;;4994055;28;20197;-60
2021/07/24 01:22:08;;;;;;;10.60;8.50;;;19.60;99.90;;;;;;4992132;28;20264;-62
2021/07/24 01:24:33;;;;;;;9.53;8.43;;;19.50;99.90;;;;;;4991840;28;20209;-59
2021/07/24 01:26:59;;;;;;;10.00;9.00;;;19.50;99.90;;;;;;4993900;28;20184;-60
2021/07/24 01:29:24;;;;;;;9.67;8.43;;;19.50;99.90;;;;;;4997834;28;20189;-62
2021/07/24 01:31:50;;;;;;;9.43;8.50;;;19.50;99.90;;;;;;4997487;28;20176;-62
2021/07/24 01:34:16;;;;;;;9.97;8.97;;;19.40;99.90;;;;;;4997579;28;20190;-61
2021/07/24 01:36:42;;;;;;;9.00;8.10;;;19.50;99.90;;;;;;4997424;28;20180;-60
2021/07/24 01:39:09;;;;;;;8.93;8.13;;;19.50;99.90;;;;;;4997289;28;20559;-61
2021/07/24 01:41:35;;;;;;;10.57;8.50;;;19.40;99.90;;;;;;4997134;28;20199;-61
2021/07/24 01:44:00;;;;;;;9.60;8.23;;;19.40;99.90;;;;;;4997451;28;20196;-61
2021/07/24 01:46:26;;;;;;;9.67;8.67;;;19.30;99.90;;;;;;4997670;28;20178;-62
2021/07/24 01:54:24;;;;;;;9.80;8.83;;;19.20;99.90;;;;;;4997937;28;20203;-60
2021/07/24 01:56:53;;;;;;;10.40;9.00;;;19.20;99.90;;;;;;4997516;28;20671;-60
2021/07/24 01:59:21;;;;;;;9.47;8.53;;;19.20;99.90;;;;;;4997410;28;20196;-61
2021/07/24 02:01:49;;;;;;;11.27;8.93;;;19.10;99.90;;;;;;4997655;28;20188;-61
2021/07/24 02:04:20;;;;;;;9.30;8.40;;;19.10;99.90;;;;;;4997360;28;20287;-62
2021/07/24 02:06:45;;;;;;;9.60;8.57;;;19.10;99.90;;;;;;4997195;28;20176;-61
2021/07/24 02:09:11;;;;;;;9.23;8.33;;;19.10;99.90;;;;;;4996949;28;20222;-61
2021/07/24 02:11:38;;;;;;;9.53;8.53;;;19.10;99.90;;;;;;4997307;28;20185;-61
2021/07/24 02:14:05;;;;;;;11.17;9.50;;;19.00;99.90;;;;;;4997046;28;20632;-62
2021/07/24 02:16:30;;;;;;;10.67;8.80;;;19.00;99.90;;;;;;4996660;28;20176;-62
2021/07/24 02:18:56;;;;;;;9.93;8.80;;;19.00;99.90;;;;;;4997375;28;20188;-61
2021/07/24 02:21:22;;;;;;;10.33;9.33;;;19.00;99.90;;;;;;4996637;28;20230;-61
2021/07/24 02:23:48;;;;;;;9.77;8.77;;;18.90;99.90;;;;;;4996711;28;20617;-60
2021/07/24 02:26:13;;;;;;;9.83;8.83;;;18.90;99.90;;;;;;4996709;28;20184;-60
2021/07/24 02:28:39;;;;;;;10.70;8.87;;;18.80;99.90;;;;;;4996864;28;20207;-62
2021/07/24 02:31:05;;;;;;;9.47;8.53;;;18.80;99.90;;;;;;4997480;28;20541;-62
2021/07/24 02:33:31;;;;;;;9.00;8.00;;;18.70;99.90;;;;;;4996699;28;20642;-60
2021/07/24 02:35:57;;;;;;;9.70;8.50;;;18.80;99.90;;;;;;4996973;28;20285;-62
2021/07/24 02:38:23;;;;;;;10.00;8.93;;;18.70;99.90;;;;;;4996346;28;20328;-61
2021/07/24 02:40:48;;;;;;;10.30;9.10;;;18.70;99.90;;;;;;4995878;28;20672;-61
2021/07/24 02:43:14;;;;;;;9.73;8.53;;;18.70;99.90;;;;;;4996907;28;20194;-60
2021/07/24 02:45:40;;;;;;;9.47;8.57;;;18.60;99.90;;;;;;4996299;28;20265;-62
2021/07/24 02:48:05;;;;;;;10.53;9.40;;;18.60;99.90;;;;;;4996487;28;20215;-61
2021/07/24 02:50:31;;;;;;;9.37;8.33;;;18.50;99.90;;;;;;4996659;28;20179;-61
2021/07/24 02:52:56;;;;;;;9.77;8.77;;;18.50;99.90;;;;;;4995822;28;20329;-62
2021/07/24 02:55:22;;;;;;;9.43;8.40;;;18.50;99.90;;;;;;4996783;28;20610;-62
2021/07/24 02:57:47;;;;;;;10.50;8.53;;;18.50;99.90;;;;;;4996106;28;20224;-61
2021/07/24 03:00:13;;;;;;;12.33;8.97;;;18.50;99.90;;;;;;4996261;28;20177;-61
2021/07/24 03:02:39;;;;;;;10.63;8.50;;;18.40;99.90;;;;;;4996314;28;20198;-61
2021/07/24 03:05:05;;;;;;;10.17;9.13;;;18.50;99.90;;;;;;4996595;28;20185;-62
2021/07/24 03:07:31;;;;;;;9.37;8.13;;;18.50;99.90;;;;;;4995918;28;20256;-61
2021/07/24 03:09:56;;;;;;;10.50;8.90;;;18.40;99.90;;;;;;4995824;28;20193;-61
2021/07/24 03:12:22;;;;;;;9.77;8.77;;;18.40;99.90;;;;;;4995849;28;20214;-59
2021/07/24 03:14:47;;;;;;;10.80;8.63;;;18.50;99.90;;;;;;4996630;28;20174;-62
2021/07/24 03:17:13;;;;;;;9.73;8.70;;;18.40;99.90;;;;;;4996364;28;20203;-62
2021/07/24 03:19:38;;;;;;;9.70;8.70;;;18.40;99.90;;;;;;4995778;28;20193;-61
2021/07/24 03:22:04;;;;;;;9.30;8.40;;;18.30;99.90;;;;;;4995563;28;20166;-61
2021/07/24 03:24:29;;;;;;;10.30;8.53;;;18.30;99.90;;;;;;4995527;28;20189;-62
2021/07/24 03:26:55;;;;;;;10.30;9.20;;;18.20;99.90;;;;;;4996432;28;20514;-62
2021/07/24 03:29:20;;;;;;;10.37;9.27;;;18.10;99.90;;;;;;4995063;28;20225;-62
2021/07/24 03:31:46;;;;;;;9.53;8.60;;;18.10;99.90;;;;;;4995858;28;20244;-62
2021/07/24 03:34:12;;;;;;;9.60;8.63;;;18.10;99.90;;;;;;4995374;28;20197;-61
2021/07/24 03:36:37;;;;;;;10.77;8.93;;;18.10;99.90;;;;;;4995821;28;20189;-61
2021/07/24 03:39:04;;;;;;;9.10;8.20;;;18.10;99.90;;;;;;4995604;28;20184;-62
2021/07/24 03:41:35;;;;;;;11.73;8.87;;;18.10;99.90;;;;;;4995206;28;20189;-61
2021/07/24 03:44:02;;;;;;;9.23;8.33;;;18.10;99.90;;;;;;4995197;28;20285;-62
2021/07/24 03:46:27;;;;;;;9.57;8.50;;;18.20;99.90;;;;;;4995299;28;20176;-62
2021/07/24 03:48:54;;;;;;;9.37;8.47;;;18.20;99.90;;;;;;4995616;28;20198;-61
2021/07/24 03:51:20;;;;;;;9.50;8.53;;;18.20;99.90;;;;;;4994373;28;20181;-60
2021/07/24 03:53:45;;;;;;;10.43;8.50;;;18.30;99.90;;;;;;4994970;28;20192;-60
2021/07/24 03:56:15;;;;;;;8.97;8.07;;;18.20;99.90;;;;;;4995049;28;20173;-62
2021/07/24 03:58:41;;;;;;;9.30;8.23;;;18.20;99.90;;;;;;4995324;28;20174;-62
2021/07/24 04:01:07;;;;;;;9.33;8.37;;;18.30;99.90;;;;;;4994698;28;20279;-60
2021/07/24 04:03:32;;;;;;;10.10;8.47;;;18.30;99.90;;;;;;4995575;28;20224;-61
2021/07/24 04:05:58;;;;;;;9.40;8.50;;;18.30;99.90;;;;;;4994671;28;20260;-61
2021/07/24 04:08:25;;;;;;;9.00;8.03;;;18.40;99.90;;;;;;4994788;28;20260;-61
2021/07/24 04:10:53;;;;;;;8.83;7.93;;;18.40;99.90;;;;;;4995374;28;20172;-62
2021/07/24 04:13:18;;;;;;;9.00;8.10;;;19.10;99.90;;;;;;4994593;28;20205;-61
2021/07/24 04:15:44;;;;;;;8.87;7.97;;;18.50;99.90;;;;;;4995120;28;20225;-62
2021/07/24 04:18:10;;;;;;;9.97;8.33;;;18.40;99.90;;;;;;4994510;28;20169;-62
2021/07/24 04:20:37;;;;;;;8.97;8.07;;;18.40;99.90;;;;;;4995042;28;20178;-62
2021/07/24 04:23:03;;;;;;;9.60;8.67;;;18.40;99.90;;;;;;4976533;28;20231;-61
2021/07/24 04:25:28;;;;;;;9.83;8.20;;;18.40;99.90;;;;;;4993092;28;20639;-61
2021/07/24 04:27:54;;;;;;;9.00;8.20;;;18.40;99.90;;;;;;4994429;28;20264;-62
2021/07/24 04:30:20;;;;;;;9.07;7.77;;;18.50;99.90;;;;;;4994440;28;20205;-62
2021/07/24 04:32:45;;;;;;;11.53;8.47;;;18.50;99.90;;;;;;4994615;28;20201;-62
2021/07/24 04:35:11;;;;;;;9.70;8.70;;;18.60;99.90;;;;;;4995072;28;20173;-62
2021/07/24 04:37:36;;;;;;;9.03;8.20;;;18.50;99.90;;;;;;4994987;28;20188;-62
2021/07/24 04:40:03;;;;;;;10.23;8.80;;;18.60;99.90;;;;;;4994120;28;20209;-62
2021/07/24 04:42:29;;;;;;;10.53;8.90;;;18.60;99.90;;;;;;4994210;28;20250;-61
2021/07/24 04:44:55;;;;;;;9.40;8.50;;;18.70;99.90;;;;;;4994561;28;20666;-62
2021/07/24 04:47:20;;;;;;;8.90;8.00;;;18.80;99.90;;;;;;4994646;28;20251;-62
2021/07/24 04:49:49;;;;;;;9.03;8.13;;;18.90;99.90;;;;;;4994878;28;20700;-62
2021/07/24 04:52:15;;;;;;;9.47;7.97;;;18.80;99.90;;;;;;4993812;28;20191;-61
2021/07/24 04:54:41;;;;;;;9.63;8.00;;;18.80;99.90;;;;;;4994322;28;20179;-61
2021/07/24 04:57:07;;;;;;;9.37;7.67;;;18.90;99.90;;;;;;4994359;28;20181;-62
2021/07/24 04:59:35;;;;;;;8.63;7.67;;;18.90;99.90;;;;;;4994679;28;20265;-62
2021/07/24 05:02:01;;;;;;;8.60;7.80;;;19.00;99.90;;;;;;4994295;28;20554;-60
2021/07/24 05:04:27;;;;;;;9.30;8.40;;;19.20;99.90;;;;;;4998408;28;20209;-62
2021/07/24 05:06:52;;;;;;;9.57;7.70;;;19.20;99.90;;;;;;4998240;28;20185;-62
2021/07/24 05:09:18;;;;;;;8.77;7.87;;;19.20;99.90;;;;;;4998063;28;20209;-63
2021/07/24 05:11:43;;;;;;;9.33;7.50;;;19.30;99.90;;;;;;4998169;28;20180;-63
2021/07/24 05:14:09;;;;;;;8.87;8.07;;;19.40;99.90;;;;;;4997870;28;20192;-62
2021/07/24 05:16:34;;;;;;;8.80;8.00;;;19.50;99.90;;;;;;4998304;28;20570;-62
2021/07/24 05:19:00;;;;;;;9.73;7.90;;;19.50;99.90;;;;;;4998519;28;20178;-62
2021/07/24 05:21:26;;;;;;;9.03;8.23;;;19.70;99.90;;;;;;4997748;28;20204;-62
2021/07/24 05:23:52;;;;;;;8.53;7.67;;;19.70;99.90;;;;;;4997896;28;20204;-62
2021/07/24 05:26:18;;;;;;;8.93;7.87;;;19.80;99.90;;;;;;4997945;28;20264;-61
2021/07/24 05:28:43;;;;;;;8.90;7.17;;;19.90;99.90;;;;;;4997809;28;20328;-63
2021/07/24 05:31:16;;;;;;;8.73;7.83;;;20.00;99.90;;;;;;4997874;28;20624;-61
2021/07/24 05:33:42;;;;;;;8.87;7.97;;;20.00;99.90;;;;;;4997847;28;20649;-60
2021/07/24 05:36:07;;;;;;;8.63;7.83;;;20.10;99.90;;;;;;4998471;28;20196;-61
2021/07/24 05:38:33;;;;;;;8.80;7.90;;;20.20;99.90;;;;;;4997938;28;20506;-62
2021/07/24 05:41:00;;;;;;;8.60;7.63;;;20.30;99.90;;;;;;4997348;28;20541;-60
2021/07/24 05:43:26;;;;;;;8.33;7.53;;;20.30;99.90;;;;;;4997542;28;20573;-61
2021/07/24 05:45:51;;;;;;;9.07;7.57;;;20.30;99.90;;;;;;4998060;28;20641;-61
2021/07/24 05:48:17;;;;;;;8.27;7.47;;;20.40;99.90;;;;;;4997534;28;20292;-62
2021/07/24 05:50:42;;;;;;;8.23;7.37;;;20.50;99.90;;;;;;4998276;28;20633;-62
2021/07/24 05:53:08;;;;;;;8.53;7.67;;;20.60;99.90;;;;;;4997556;28;20240;-62
2021/07/24 05:55:33;;;;;;;9.53;7.93;;;20.80;99.90;;;;;;4997594;28;20177;-62
2021/07/24 05:57:59;;;;;;;8.67;7.47;;;20.80;99.90;;;;;;4997035;28;20192;-62
2021/07/24 06:00:24;;;;;;;8.53;7.70;;;20.80;99.90;;;;;;4997426;28;20189;-62
2021/07/24 06:02:50;;;;;;;7.90;7.10;;;20.80;99.90;;;;;;4997550;28;20193;-63
2021/07/24 06:05:15;;;;;;;8.27;7.43;;;21.00;99.90;;;;;;4997285;28;20223;-62
2021/07/24 06:07:41;;;;;;;9.20;8.30;;;21.20;99.90;;;;;;4996943;28;20205;-62
2021/07/24 06:10:07;;;;;;;8.10;7.40;;;21.20;99.90;;;;;;4997021;28;20193;-63
2021/07/24 06:12:32;;;;;;;8.43;7.53;;;21.30;99.90;;;;;;4996652;28;20178;-61
2021/07/24 06:14:58;;;;;;;8.37;7.50;;;21.50;99.90;;;;;;4997146;28;20610;-62
2021/07/24 06:17:24;;;;;;;8.27;7.47;;;21.50;99.90;;;;;;4997539;28;20256;-63
2021/07/24 06:19:49;;;;;;;8.90;8.03;;;21.60;99.90;;;;;;4997123;28;20657;-63
2021/07/24 06:22:14;;;;;;;7.93;7.20;;;21.60;99.90;;;;;;4996661;28;20178;-62
2021/07/24 06:24:40;;;;;;;8.10;7.30;;;21.80;99.90;;;;;;4997083;28;20174;-62
2021/07/24 06:27:06;;;;;;;7.93;7.13;;;21.80;99.90;;;;;;4996958;28;20174;-62
2021/07/24 06:29:31;;;;;;;8.13;7.33;;;21.90;99.90;;;;;;4996703;28;20208;-63
2021/07/24 06:31:57;;;;;;;10.03;7.57;;;22.10;99.90;;;;;;4996432;28;20173;-61
2021/07/24 06:34:22;;;;;;;8.17;7.33;;;22.10;99.90;;;;;;4996684;28;20194;-63
2021/07/24 06:36:48;;;;;;;9.40;7.37;;;22.20;99.90;;;;;;4996434;28;20181;-63
2021/07/24 06:39:14;;;;;;;8.73;7.03;;;22.30;99.90;;;;;;4996472;28;20181;-62
2021/07/24 06:41:43;;;;;;;9.30;7.77;;;22.30;99.90;;;;;;4996223;28;20197;-63
2021/07/24 06:44:09;;;;;;;9.43;8.52;;;22.40;99.90;;;;;;4996960;28;20201;-63
2021/07/24 06:46:35;;;;;;;10.05;9.05;;;22.50;99.90;;;;;;4996471;28;20257;-63
2021/07/24 06:49:00;;;;;;;9.80;8.75;;;22.60;99.90;;;;;;4994134;28;20673;-63
2021/07/24 06:51:26;;;;;;;8.10;7.30;;;22.60;99.90;;;;;;4987570;28;20215;-63
2021/07/24 06:53:52;;;;;;;9.43;7.93;;;22.50;99.90;;;;;;5002366;28;20200;-62
2021/07/24 06:56:17;;;;;;;9.02;8.20;;;22.60;99.90;;;;;;4981884;28;20235;-61
2021/07/24 06:58:43;;;;;;;8.38;7.57;;;22.60;99.90;;;;;;5011230;28;20181;-63
2021/07/24 07:01:08;;;;;;;8.70;7.75;;;22.80;99.90;;;;;;5011657;28;20184;-63
2021/07/24 07:03:35;;;;;;;10.52;8.15;;;22.80;99.90;;;;;;4985753;28;20211;-63
2021/07/24 07:06:03;;;;;;;8.52;7.63;;;22.90;99.90;;;;;;4997159;28;20639;-63
2021/07/24 07:08:28;;;;;;;8.10;7.30;;;22.80;99.90;;;;;;4986865;28;20732;-63
2021/07/24 07:10:59;;;;;;;7.57;6.88;;;23.00;99.90;;;;;;5007873;28;20268;-63
2021/07/24 07:13:25;;;;;;;8.40;7.43;;;23.10;99.90;;;;;;4987226;28;20680;-63
2021/07/24 07:15:50;;;;;;;8.27;7.47;;;23.10;99.90;;;;;;5013785;28;20195;-63
2021/07/24 07:18:16;;;;;;;8.68;7.88;;;22.90;99.90;;;;;;5013416;28;20224;-63
2021/07/24 07:20:42;;;;;;;9.52;7.80;;;23.00;99.90;;;;;;4995052;28;20176;-63
2021/07/24 07:23:07;;;;;;;8.48;7.68;;;23.10;99.90;;;;;;4987512;28;20209;-63
2021/07/24 07:25:33;;;;;;;7.93;7.13;;;23.30;99.90;;;;;;4995875;28;20319;-63
2021/07/24 07:27:58;;;;;;;8.85;8.05;;;23.40;99.90;;;;;;4999664;28;20197;-63
2021/07/24 07:30:24;;;;;;;8.35;7.38;;;23.40;99.90;;;;;;4996198;28;20697;-63
2021/07/24 07:32:49;;;;;;;8.82;7.70;;;23.40;99.90;;;;;;5011033;28;20189;-63
2021/07/24 07:35:15;;;;;;;9.15;7.03;;;23.60;99.90;;;;;;5015419;28;20292;-63
2021/07/24 07:37:48;;;;;;;8.52;7.53;;;23.80;99.90;;;;;;5004841;28;20533;-63
2021/07/24 07:40:14;;;;;;;9.40;7.82;;;24.00;99.90;;;;;;4994829;28;20648;-64
2021/07/24 07:42:40;;;;;;;8.45;7.57;;;24.10;99.90;;;;;;4995080;28;20669;-64
2021/07/24 07:45:06;;;;;;;8.55;7.20;;;24.10;99.90;;;;;;5011935;28;20703;-63
2021/07/24 07:47:31;;;;;;;9.35;8.15;;;24.10;99.90;;;;;;4984540;28;20177;-63
2021/07/24 07:49:57;;;;;;;8.45;7.65;;;24.30;99.90;;;;;;5014983;28;20528;-63
2021/07/24 07:52:23;;;;;;;10.10;7.93;;;24.40;99.90;;;;;;5001434;28;20209;-63
2021/07/24 07:54:49;;;;;;;13.10;7.97;;;24.40;99.90;;;;;;5002357;28;20641;-64
2021/07/24 07:57:14;;;;;;;8.52;7.72;;;24.60;99.90;;;;;;4988394;28;20255;-62
2021/07/24 07:59:40;;;;;;;9.45;8.55;;;24.50;99.90;;;;;;5014753;28;20637;-63
2021/07/24 08:02:06;;;;;;;10.70;8.18;;;24.60;99.90;;;;;;5014091;28;20284;-62
2021/07/24 08:04:32;;;;;;;8.68;7.72;;;24.40;99.90;;;;;;5014482;28;20287;-64
2021/07/24 08:06:58;;;;;;;8.70;7.80;;;24.50;99.90;;;;;;5013874;28;20199;-63
2021/07/24 08:09:23;;;;;;;14.02;8.38;;;24.70;99.90;;;;;;4993861;28;20620;-63
2021/07/24 08:11:50;;;;;;;10.65;8.40;;;24.90;99.90;;;;;;4982765;28;20182;-64
2021/07/24 08:14:15;;;;;;;12.20;8.00;;;25.00;99.90;;;;;;5010679;28;20620;-63
2021/07/24 08:16:43;;;;;;;8.52;7.70;;;25.10;99.90;;;;;;5000157;28;20216;-63
2021/07/24 08:19:09;;;;;;;9.35;8.38;;;25.20;99.90;;;;;;5003311;28;20173;-64
2021/07/24 08:21:34;;;;;;;10.15;7.65;;;25.00;99.90;;;;;;5013126;28;20591;-63
2021/07/24 08:24:00;;;;;;;8.98;8.15;;;25.10;99.90;;;;;;5001052;28;20603;-64
2021/07/24 08:26:25;;;;;;;8.85;8.05;;;25.20;99.90;;;;;;5000545;28;20177;-63
2021/07/24 08:28:51;;;;;;;9.90;8.52;;;25.30;99.90;;;;;;4992941;28;20219;-62
2021/07/24 08:31:16;;;;;;;9.20;8.40;;;25.50;99.90;;;;;;5003385;28;20181;-64
2021/07/24 08:33:42;;;;;;;10.02;9.02;;;25.80;99.90;;;;;;5002852;28;20195;-63
2021/07/24 08:36:08;;;;;;;9.43;8.52;;;26.10;99.90;;;;;;5013748;28;20171;-63
2021/07/24 08:38:33;;;;;;;9.57;8.57;;;26.20;99.90;;;;;;4997733;28;20193;-63
2021/07/24 08:40:59;;;;;;;10.07;8.60;;;26.20;99.90;;;;;;4989678;28;20554;-63
2021/07/24 08:43:24;;;;;;;9.50;8.60;;;26.00;99.90;;;;;;4988116;28;20557;-63
2021/07/24 08:45:50;;;;;;;9.55;8.65;;;25.80;99.90;;;;;;4992010;28;20182;-63
2021/07/24 08:48:16;;;;;;;10.23;9.18;;;25.90;99.90;;;;;;4992804;28;20258;-63
2021/07/24 08:50:44;;;;;;;9.25;8.35;;;26.30;99.90;;;;;;4988396;28;20231;-63
2021/07/24 08:53:11;;;;;;;9.45;8.45;;;26.50;99.90;;;;;;4993336;28;20915;-64
2021/07/24 08:55:41;;;;;;;10.98;9.10;;;26.60;99.90;;;;;;4986100;28;20207;-64
2021/07/24 08:58:12;;;;;;;10.00;9.02;;;26.70;99.90;;;;;;4983495;28;20237;-64
2021/07/24 09:00:37;;;;;;;11.73;8.60;;;26.70;99.90;;;;;;4981405;28;20193;-63
2021/07/24 09:03:04;;;;;;;9.13;8.10;;;27.00;99.90;;;;;;4986206;28;20275;-64
2021/07/24 09:05:31;;;;;;;9.05;8.15;;;27.40;99.90;;;;;;4985356;28;20181;-64
2021/07/24 09:07:59;;;;;;;8.90;8.00;;;27.50;99.90;;;;;;4991151;28;20208;-64
2021/07/24 09:10:25;;;;;;;9.13;8.32;;;27.30;99.90;;;;;;4991425;28;20561;-63
2021/07/24 09:12:55;;;;;;;8.32;7.53;;;27.20;99.90;;;;;;4991882;28;20707;-64
2021/07/24 09:15:20;;;;;;;8.85;7.97;;;27.40;99.90;;;;;;4992376;28;20165;-63
2021/07/24 09:17:46;;;;;;;8.60;7.80;;;27.60;99.90;;;;;;4991646;28;20228;-64
2021/07/24 09:20:13;;;;;;;15.50;8.88;;;27.80;99.90;;;;;;4994179;28;20180;-64
2021/07/24 09:22:40;;;;;;;14.25;9.38;;;27.80;99.90;;;;;;4993778;28;20216;-64
2021/07/24 09:25:13;;;;;;;11.23;8.93;;;27.50;99.90;;;;;;4994044;28;20178;-64
2021/07/24 09:28:09;;;;;;;9.57;8.57;;;27.40;99.90;;;;;;4994087;28;20169;-64
2021/07/24 09:30:35;;;;;;;9.20;8.30;;;27.60;99.90;;;;;;4992674;28;20673;-64
2021/07/24 09:33:03;;;;;;;9.00;8.15;;;27.50;99.90;;;;;;4991864;28;20240;-64
2021/07/24 09:35:41;;;;;;;12.98;8.85;;;27.40;99.90;;;;;;4992575;28;20184;-64
2021/07/24 09:38:13;;;;;;;9.70;8.70;;;27.30;99.90;;;;;;4993784;28;20506;-63
2021/07/24 09:40:40;;;;;;;9.75;8.85;;;27.10;99.90;;;;;;4992552;28;20186;-64
2021/07/24 09:43:34;;;;;;;9.60;8.48;;;27.20;99.90;;;;;;4993810;28;20197;-64
2021/07/24 09:46:22;;;;;;;9.95;9.05;;;27.30;99.90;;;;;;4994477;28;20691;-64
2021/07/24 09:48:51;;;;;;;10.15;9.25;;;27.50;99.90;;;;;;4995739;28;20216;-63
2021/07/24 09:51:34;;;;;;;9.40;8.50;;;27.80;99.90;;;;;;4997419;28;20656;-64
2021/07/24 09:54:00;;;;;;;10.02;8.95;;;28.20;99.90;;;;;;4997375;28;20197;-64
2021/07/24 09:56:44;;;;;;;9.55;8.70;;;28.30;99.90;;;;;;4997402;28;20215;-64
2021/07/24 09:59:29;;;;;;;9.88;8.88;;;28.30;99.90;;;;;;4997350;28;20653;-64
2021/07/24 10:01:57;;;;;;;9.93;8.93;;;28.10;99.90;;;;;;4997525;28;20256;-64
2021/07/24 10:04:30;;;;;;;9.77;8.85;;;28.10;99.90;;;;;;4997483;28;20280;-63
2021/07/24 10:06:58;;;;;;;9.43;8.45;;;28.40;99.90;;;;;;4997978;28;20224;-64
2021/07/24 10:09:28;;;;;;;10.15;9.13;;;28.20;99.90;;;;;;4997116;28;20233;-63
2021/07/24 10:11:57;;;;;;;9.77;8.60;;;27.90;99.90;;;;;;4997247;28;20224;-64
2021/07/24 10:14:23;;;;;;;9.63;8.73;;;28.20;99.90;;;;;;4997273;28;20193;-64
2021/07/24 10:16:51;;;;;;;9.35;8.52;;;28.60;99.90;;;;;;4997141;28;20217;-63
2021/07/24 10:19:18;;;;;;;9.48;8.57;;;29.00;99.90;;;;;;4997647;28;20577;-63
2021/07/24 10:21:44;;;;;;;9.93;8.93;;;29.10;99.90;;;;;;4996699;28;20180;-64
2021/07/24 10:24:11;;;;;;;9.18;8.20;;;29.10;99.90;;;;;;4996888;28;20645;-64
2021/07/24 10:26:40;;;;;;;9.13;8.32;;;29.10;99.90;;;;;;4996940;28;20181;-63
2021/07/24 10:29:09;;;;;;;9.43;8.43;;;29.00;99.90;;;;;;4996796;28;20236;-64
2021/07/24 10:32:00;;;;;;;9.35;8.55;;;28.90;99.90;;;;;;4997154;28;20166;-64
2021/07/24 10:34:28;;;;;;;9.77;8.52;;;28.90;99.90;;;;;;4996543;28;20565;-64
2021/07/24 10:36:54;;;;;;;10.10;8.63;;;29.00;99.90;;;;;;4996909;28;20166;-63
2021/07/24 10:39:21;;;;;;;10.05;9.02;;;29.00;99.90;;;;;;4997231;28;20185;-64
2021/07/24 10:41:49;;;;;;;9.25;8.35;;;29.20;99.70;;;;;;4996877;28;20177;-64
2021/07/24 10:44:18;;;;;;;9.95;9.05;;;29.20;99.90;;;;;;4996767;28;20208;-63
2021/07/24 10:46:44;;;;;;;9.68;8.77;;;29.50;99.90;;;;;;4996485;28;20174;-64
2021/07/24 10:49:32;;;;;;;8.73;7.93;;;29.50;99.80;;;;;;4996720;28;20205;-64
2021/07/24 10:51:58;;;;;;;9.30;8.50;;;29.80;99.90;;;;;;4936329;29;20191;-64
2021/07/24 10:54:25;;;;;;;9.65;8.43;;;30.20;98.70;;;;;;4936604;29;20345;-64
2021/07/24 10:56:51;;;;;;;9.65;8.00;;;30.30;97.90;;;;;;4936426;29;20191;-63
2021/07/24 10:59:23;;;;;;;8.25;7.45;;;30.10;98.90;;;;;;4935771;29;20180;-64
2021/07/24 11:01:53;;;;;;;9.13;8.23;;;30.20;99.90;;;;;;4935976;29;20195;-63
2021/07/24 11:04:37;;;;;;;11.57;8.55;;;30.20;98.20;;;;;;4936604;29;20333;-65
2021/07/24 11:07:21;;;;;;;8.45;7.65;;;30.30;98.20;;;;;;4936250;29;20179;-65
2021/07/24 11:09:52;;;;;;;8.35;7.65;;;30.50;97.70;;;;;;4936087;29;20696;-64
2021/07/24 11:12:32;;;;;;;8.30;7.60;;;30.20;97.90;;;;;;4936142;29;20176;-65
2021/07/24 11:14:58;;;;;;;8.25;7.45;;;30.10;98.30;;;;;;4936400;29;20171;-65
2021/07/24 11:17:24;;;;;;;8.57;7.78;;;30.00;99.10;;;;;;4936098;29;20648;-64
2021/07/24 11:19:49;;;;;;;8.93;8.13;;;30.00;98.00;;;;;;4936533;29;20295;-63
2021/07/24 11:22:27;;;;;;;8.30;7.50;;;30.10;97.80;;;;;;4935614;29;20270;-65
2021/07/24 11:24:53;;;;;;;8.68;7.85;;;30.40;97.40;;;;;;4935742;29;20175;-65
2021/07/24 11:27:28;;;;;;;7.80;7.20;;;30.20;95.30;;;;;;4935983;29;20560;-65
2021/07/24 11:30:08;;;;;;;8.82;7.85;;;30.60;97.30;;;;;;4987752;28;20223;-65
2021/07/24 11:32:39;;;;;;;8.00;7.30;;;31.20;96.90;;;;;;4995244;28;20189;-64
2021/07/24 11:35:07;;;;;;;8.93;8.13;;;31.40;95.30;;;;;;4995717;28;20177;-65
2021/07/24 11:37:49;;;;;;;9.82;7.45;;;31.70;94.70;;;;;;4995524;28;20189;-64
2021/07/24 11:40:24;;;;;;;10.27;8.45;;;31.60;93.80;;;;;;4995664;28;20162;-64
2021/07/24 11:43:02;;;;;;;7.78;6.93;;;31.40;93.70;;;;;;4995176;28;20196;-64
2021/07/24 11:45:29;;;;;;;8.32;7.53;;;31.30;95.40;;;;;;4995393;28;20165;-64
2021/07/24 11:48:15;;;;;;;7.88;7.18;;;31.70;94.30;;;;;;4992628;28;20308;-64
2021/07/24 11:50:42;;;;;;;7.70;6.90;;;32.20;93.80;;;;;;4991867;28;20184;-64
2021/07/24 11:53:10;;;;;;;7.28;6.53;;;32.20;90.80;;;;;;4993643;28;20200;-65
2021/07/24 11:55:36;;;;;;;8.52;7.72;;;32.30;92.30;;;;;;4988609;28;20186;-65
2021/07/24 11:58:07;;;;;;;8.65;7.85;;;32.30;92.00;;;;;;4987923;28;20168;-64
2021/07/24 12:00:36;;;;;;;7.63;6.93;;;31.90;91.60;;;;;;5013171;28;20215;-64
2021/07/24 12:03:19;;;;;;;8.15;7.35;;;32.00;93.20;;;;;;5012730;28;20204;-64
2021/07/24 12:05:47;;;;;;;7.88;7.18;;;32.30;91.80;;;;;;5014038;28;20173;-64
2021/07/24 12:08:14;;;;;;;8.43;7.63;;;32.60;94.40;;;;;;5014417;28;20244;-64
2021/07/24 12:10:45;;;;;;;9.90;7.47;;;32.80;91.30;;;;;;5014317;28;20161;-64
2021/07/24 12:13:11;;;;;;;9.27;7.40;;;32.90;91.30;;;;;;5015043;28;20203;-65
2021/07/24 12:15:55;;;;;;;8.35;7.47;;;32.80;90.20;;;;;;5014483;28;20190;-64
2021/07/24 12:18:21;;;;;;;7.82;7.03;;;32.70;90.40;;;;;;5014369;28;20211;-64
2021/07/24 12:20:49;;;;;;;8.15;7.30;;;32.70;91.40;;;;;;5014737;28;20172;-64
2021/07/24 12:23:27;;;;;;;10.35;6.88;;;32.70;90.60;;;;;;5014105;28;20675;-64
2021/07/24 12:26:13;;;;;;;11.18;7.20;;;32.80;91.20;;;;;;5014584;28;20176;-65
2021/07/24 12:28:41;;;;;;;8.68;7.53;;;32.90;88.60;;;;;;5014797;28;20189;-64
2021/07/24 12:31:18;;;;;;;8.18;7.38;;;32.70;89.40;;;;;;5014032;28;20275;-64
2021/07/24 12:33:52;;;;;;;8.23;7.38;;;32.80;90.40;;;;;;5014337;28;20266;-65
2021/07/24 12:36:19;;;;;;;8.48;7.43;;;32.90;90.60;;;;;;5014416;28;20164;-65
2021/07/24 12:38:45;;;;;;;9.00;7.40;;;32.90;89.60;;;;;;5014386;28;20184;-64
2021/07/24 12:41:11;;;;;;;8.00;7.20;;;32.60;90.60;;;;;;5013878;28;20169;-64
2021/07/24 12:43:37;;;;;;;15.35;7.75;;;32.30;90.40;;;;;;5014159;28;20200;-65
2021/07/24 12:46:17;;;;;;;8.27;7.47;;;32.10;90.40;;;;;;5014292;28;20187;-64
2021/07/24 12:48:46;;;;;;;9.77;7.45;;;31.70;91.60;;;;;;5014595;28;20242;-64
2021/07/24 12:51:16;;;;;;;8.60;7.80;;;31.50;92.80;;;;;;5013947;28;20514;-64
2021/07/24 12:53:44;;;;;;;9.00;8.10;;;31.30;92.70;;;;;;5013983;28;20212;-65